createdAt,value
2022-10-14T00:00:42.082Z,0.00
2022-10-14T00:01:41.107Z,0.00
2022-10-14T00:02:40.999Z,0.00
2022-10-14T00:03:41.023Z,0.00
2022-10-14T00:04:40.983Z,0.00
2022-10-14T00:05:41.243Z,0.00
2022-10-14T00:06:41.071Z,0.00
2022-10-14T00:07:41.911Z,0.00
2022-10-14T00:08:41.015Z,0.00
2022-10-14T00:09:40.927Z,0.00
2022-10-14T00:10:40.902Z,0.00
2022-10-14T00:11:40.914Z,0.00
2022-10-14T00:12:40.903Z,0.00
2022-10-14T00:13:40.860Z,0.00
2022-10-14T00:14:40.875Z,0.00
2022-10-14T00:15:40.871Z,0.00
2022-10-14T00:16:40.892Z,0.00
2022-10-14T00:17:40.915Z,0.00
2022-10-14T00:18:40.796Z,0.00
2022-10-14T00:19:40.820Z,0.00
2022-10-14T00:20:40.803Z,0.00
2022-10-14T00:21:40.804Z,0.00
2022-10-14T00:22:40.792Z,0.00
2022-10-14T00:23:40.756Z,0.00
2022-10-14T00:24:40.774Z,0.00
2022-10-14T00:25:40.727Z,0.00
2022-10-14T00:26:40.740Z,0.00
2022-10-14T00:27:40.692Z,0.00
2022-10-14T00:28:40.737Z,0.00
2022-10-14T00:29:40.689Z,0.00
2022-10-14T00:30:40.668Z,0.00
2022-10-14T00:31:40.676Z,0.00
2022-10-14T00:32:40.668Z,0.00
2022-10-14T00:33:40.648Z,0.00
2022-10-14T00:34:40.672Z,0.00
2022-10-14T00:35:40.616Z,0.00
2022-10-14T00:36:40.690Z,0.00
2022-10-14T00:37:40.645Z,0.00
2022-10-14T00:38:40.624Z,0.00
2022-10-14T00:39:40.580Z,0.00
2022-10-14T00:40:40.565Z,0.00
2022-10-14T00:41:40.613Z,0.00
2022-10-14T00:42:40.631Z,0.00
2022-10-14T00:43:41.534Z,0.00
2022-10-14T00:44:40.528Z,0.00
2022-10-14T00:45:40.526Z,0.00
2022-10-14T00:46:40.522Z,0.00
2022-10-14T00:47:40.496Z,0.00
2022-10-14T00:48:40.537Z,0.00
2022-10-14T00:49:40.477Z,0.00
2022-10-14T00:50:40.489Z,0.00
2022-10-14T00:51:40.512Z,0.00
2022-10-14T00:52:40.457Z,0.00
2022-10-14T00:53:40.477Z,0.00
2022-10-14T00:54:40.432Z,0.00
2022-10-14T00:55:40.441Z,0.00
2022-10-14T00:56:40.396Z,0.00
2022-10-14T00:57:40.990Z,0.00
2022-10-14T00:58:40.441Z,0.00
2022-10-14T00:59:40.358Z,0.00
2022-10-14T01:00:40.447Z,0.00
2022-10-14T01:01:40.984Z,0.00
2022-10-14T01:02:40.341Z,0.00
2022-10-14T01:03:40.361Z,0.00
2022-10-14T01:04:40.312Z,0.00
2022-10-14T01:05:41.292Z,0.00
2022-10-14T01:06:40.280Z,0.00
2022-10-14T01:07:40.261Z,0.00
2022-10-14T01:08:40.267Z,0.00
2022-10-14T01:09:40.267Z,0.00
2022-10-14T01:10:40.257Z,0.00
2022-10-14T01:11:40.228Z,0.00
2022-10-14T01:12:40.210Z,0.00
2022-10-14T01:13:40.227Z,0.00
2022-10-14T01:14:40.199Z,0.00
2022-10-14T01:15:40.450Z,0.00
2022-10-14T01:16:40.190Z,0.00
2022-10-14T01:17:40.186Z,0.00
2022-10-14T01:18:40.155Z,0.00
2022-10-14T01:19:40.974Z,0.00
2022-10-14T01:20:40.153Z,0.00
2022-10-14T01:21:40.146Z,0.00
2022-10-14T01:22:40.090Z,0.00
2022-10-14T01:23:40.076Z,0.00
2022-10-14T01:24:40.084Z,0.00
2022-10-14T01:25:40.067Z,0.00
2022-10-14T01:26:40.051Z,0.00
2022-10-14T01:27:40.087Z,0.00
2022-10-14T01:28:40.103Z,0.00
2022-10-14T01:29:40.031Z,0.00
2022-10-14T01:30:40.080Z,0.00
2022-10-14T01:31:39.999Z,0.00
2022-10-14T01:32:40.007Z,0.00
2022-10-14T01:33:40.987Z,0.00
2022-10-14T01:34:40.967Z,0.00
2022-10-14T01:35:40.042Z,0.00
2022-10-14T01:36:39.967Z,0.00
2022-10-14T01:37:39.929Z,0.00
2022-10-14T01:38:39.918Z,0.00
2022-10-14T01:39:39.920Z,0.00
2022-10-14T01:40:39.908Z,0.00
2022-10-14T01:41:39.884Z,0.00
2022-10-14T01:42:39.867Z,0.00
2022-10-14T01:43:39.852Z,0.00
2022-10-14T01:44:39.865Z,0.00
2022-10-14T01:45:39.856Z,0.00
2022-10-14T01:46:39.853Z,0.00
2022-10-14T01:47:39.860Z,0.00
2022-10-14T01:48:39.832Z,0.00
2022-10-14T01:49:39.796Z,0.00
2022-10-14T01:50:40.800Z,0.00
2022-10-14T01:51:39.800Z,0.00
2022-10-14T01:52:39.756Z,0.00
2022-10-14T01:53:39.765Z,0.00
2022-10-14T01:54:39.724Z,0.00
2022-10-14T01:55:39.724Z,0.00
2022-10-14T01:56:40.839Z,0.00
2022-10-14T01:57:40.722Z,0.00
2022-10-14T01:58:39.701Z,0.00
2022-10-14T01:59:39.684Z,0.00
2022-10-14T02:00:39.701Z,0.00
2022-10-14T02:01:40.003Z,0.00
2022-10-14T02:02:39.664Z,0.00
2022-10-14T02:03:39.652Z,0.00
2022-10-14T02:04:39.650Z,0.00
2022-10-14T02:05:39.633Z,0.00
2022-10-14T02:06:39.641Z,0.00
2022-10-14T02:07:39.658Z,0.00
2022-10-14T02:08:39.624Z,0.00
2022-10-14T02:09:39.608Z,0.00
2022-10-14T02:10:39.652Z,0.00
2022-10-14T02:11:39.571Z,0.00
2022-10-14T02:12:39.589Z,0.00
2022-10-14T02:13:39.562Z,0.00
2022-10-14T02:14:39.561Z,0.00
2022-10-14T02:15:39.514Z,0.00
2022-10-14T02:16:39.533Z,0.00
2022-10-14T02:17:39.545Z,0.00
2022-10-14T02:18:39.585Z,0.00
2022-10-14T02:19:40.462Z,0.00
2022-10-14T02:20:39.513Z,0.00
2022-10-14T02:21:39.486Z,0.00
2022-10-14T02:22:39.425Z,0.00
2022-10-14T02:23:39.441Z,0.00
2022-10-14T02:24:39.426Z,0.00
2022-10-14T02:25:39.489Z,0.00
2022-10-14T02:26:39.375Z,0.00
2022-10-14T02:27:39.358Z,0.00
2022-10-14T02:28:39.423Z,0.00
2022-10-14T02:29:39.385Z,0.00
2022-10-14T02:30:39.351Z,0.00
2022-10-14T02:31:39.378Z,0.00
2022-10-14T02:32:39.311Z,0.00
2022-10-14T02:33:39.317Z,0.00
2022-10-14T02:34:39.309Z,0.00
2022-10-14T02:35:39.277Z,0.00
2022-10-14T02:36:39.250Z,0.00
2022-10-14T02:37:39.247Z,0.00
2022-10-14T02:38:39.257Z,0.00
2022-10-14T02:39:39.274Z,0.00
2022-10-14T02:40:39.232Z,0.00
2022-10-14T02:41:39.226Z,0.00
2022-10-14T02:42:39.208Z,0.00
2022-10-14T02:43:39.170Z,0.00
2022-10-14T02:44:39.246Z,0.00
2022-10-14T02:45:39.198Z,0.00
2022-10-14T02:46:39.138Z,0.00
2022-10-14T02:47:39.140Z,0.00
2022-10-14T02:48:39.126Z,0.00
2022-10-14T02:49:39.155Z,0.00
2022-10-14T02:50:39.115Z,0.00
2022-10-14T02:51:39.104Z,0.00
2022-10-14T02:52:39.098Z,0.00
2022-10-14T02:53:39.095Z,0.00
2022-10-14T02:54:39.067Z,0.00
2022-10-14T02:55:39.084Z,0.00
2022-10-14T02:56:39.154Z,0.00
2022-10-14T02:57:39.043Z,0.00
2022-10-14T02:58:39.026Z,0.00
2022-10-14T02:59:39.043Z,0.00
2022-10-14T03:00:39.991Z,0.00
2022-10-14T03:01:39.160Z,0.00
2022-10-14T03:02:38.981Z,0.00
2022-10-14T03:03:38.957Z,0.00
2022-10-14T03:04:38.960Z,0.00
2022-10-14T03:05:38.947Z,0.00
2022-10-14T03:06:38.895Z,0.00
2022-10-14T03:07:39.907Z,0.00
2022-10-14T03:08:39.473Z,0.00
2022-10-14T03:09:38.907Z,0.00
2022-10-14T03:10:38.895Z,0.00
2022-10-14T03:11:38.899Z,0.00
2022-10-14T03:12:38.943Z,0.00
2022-10-14T03:13:38.869Z,0.00
2022-10-14T03:14:38.884Z,0.00
2022-10-14T03:15:38.861Z,0.00
2022-10-14T03:16:38.836Z,0.00
2022-10-14T03:17:38.792Z,0.00
2022-10-14T03:18:38.776Z,0.00
2022-10-14T03:19:38.824Z,0.00
2022-10-14T03:20:38.785Z,0.00
2022-10-14T03:21:38.804Z,0.00
2022-10-14T03:22:38.760Z,0.00
2022-10-14T03:23:38.750Z,0.00
2022-10-14T03:24:38.801Z,0.00
2022-10-14T03:25:38.809Z,0.00
2022-10-14T03:26:38.693Z,0.00
2022-10-14T03:27:38.665Z,0.00
2022-10-14T03:28:38.720Z,0.00
2022-10-14T03:29:38.681Z,0.00
2022-10-14T03:30:38.656Z,0.00
2022-10-14T03:31:38.666Z,0.00
2022-10-14T03:32:38.654Z,0.00
2022-10-14T03:33:38.620Z,0.00
2022-10-14T03:34:38.670Z,0.00
2022-10-14T03:35:38.613Z,0.00
2022-10-14T03:36:38.626Z,0.00
2022-10-14T03:37:38.585Z,0.00
2022-10-14T03:38:38.563Z,0.00
2022-10-14T03:39:38.582Z,0.00
2022-10-14T03:40:38.575Z,0.00
2022-10-14T03:41:38.506Z,0.00
2022-10-14T03:42:38.518Z,0.00
2022-10-14T03:43:38.517Z,0.00
2022-10-14T03:44:38.497Z,0.00
2022-10-14T03:45:38.497Z,0.00
2022-10-14T03:46:38.497Z,0.00
2022-10-14T03:47:38.458Z,0.00
2022-10-14T03:48:38.437Z,0.00
2022-10-14T03:49:38.458Z,0.00
2022-10-14T03:50:38.433Z,0.00
2022-10-14T03:51:38.454Z,0.00
2022-10-14T03:52:38.413Z,0.00
2022-10-14T03:53:38.374Z,0.00
2022-10-14T03:54:38.345Z,0.00
2022-10-14T03:55:38.356Z,0.00
2022-10-14T03:56:38.349Z,0.00
2022-10-14T03:57:38.383Z,0.00
2022-10-14T03:58:38.343Z,0.00
2022-10-14T03:59:38.365Z,0.00
2022-10-14T04:00:38.358Z,0.00
2022-10-14T04:01:38.436Z,0.00
2022-10-14T04:02:38.306Z,0.00
2022-10-14T04:03:38.299Z,0.00
2022-10-14T04:04:38.262Z,0.00
2022-10-14T04:05:38.257Z,0.00
2022-10-14T04:06:38.230Z,0.00
2022-10-14T04:07:38.234Z,0.00
2022-10-14T04:08:38.226Z,0.00
2022-10-14T04:09:38.202Z,0.00
2022-10-14T04:10:38.207Z,0.00
2022-10-14T04:11:38.196Z,0.00
2022-10-14T04:12:38.195Z,0.00
2022-10-14T04:13:38.164Z,0.00
2022-10-14T04:14:38.151Z,0.00
2022-10-14T04:15:38.239Z,0.00
2022-10-14T04:16:38.146Z,0.00
2022-10-14T04:17:38.114Z,0.00
2022-10-14T04:18:38.155Z,0.00
2022-10-14T04:19:38.116Z,0.00
2022-10-14T04:20:38.087Z,0.00
2022-10-14T04:21:38.091Z,0.00
2022-10-14T04:22:38.163Z,0.00
2022-10-14T04:23:38.097Z,0.00
2022-10-14T04:24:38.039Z,0.00
2022-10-14T04:25:38.056Z,0.00
2022-10-14T04:26:38.075Z,0.00
2022-10-14T04:27:38.019Z,0.00
2022-10-14T04:28:38.010Z,0.00
2022-10-14T04:29:38.004Z,0.00
2022-10-14T04:30:38.009Z,0.00
2022-10-14T04:31:37.939Z,0.00
2022-10-14T04:32:37.974Z,0.00
2022-10-14T04:33:38.584Z,0.00
2022-10-14T04:34:37.955Z,0.00
2022-10-14T04:35:37.937Z,0.00
2022-10-14T04:36:37.897Z,0.00
2022-10-14T04:37:37.909Z,0.00
2022-10-14T04:38:37.912Z,0.00
2022-10-14T04:39:37.886Z,0.00
2022-10-14T04:40:37.907Z,0.00
2022-10-14T04:41:37.888Z,0.00
2022-10-14T04:42:37.864Z,0.00
2022-10-14T04:43:37.821Z,0.00
2022-10-14T04:44:37.839Z,0.00
2022-10-14T04:45:37.819Z,0.00
2022-10-14T04:46:37.801Z,0.00
2022-10-14T04:47:37.800Z,0.00
2022-10-14T04:48:37.757Z,0.00
2022-10-14T04:49:37.746Z,0.00
2022-10-14T04:50:37.755Z,0.00
2022-10-14T04:51:37.798Z,0.00
2022-10-14T04:52:37.732Z,0.00
2022-10-14T04:53:37.745Z,0.00
2022-10-14T04:54:37.701Z,0.00
2022-10-14T04:55:37.709Z,0.00
2022-10-14T04:56:37.747Z,0.00
2022-10-14T04:57:37.661Z,0.00
2022-10-14T04:58:37.694Z,0.00
2022-10-14T04:59:37.676Z,0.00
2022-10-14T05:00:37.681Z,0.00
2022-10-14T05:01:37.799Z,0.00
2022-10-14T05:02:37.662Z,0.00
2022-10-14T05:03:37.589Z,0.00
2022-10-14T05:04:37.600Z,0.00
2022-10-14T05:05:37.653Z,0.00
2022-10-14T05:06:37.683Z,0.00
2022-10-14T05:07:38.603Z,0.00
2022-10-14T05:08:38.733Z,0.00
2022-10-14T05:09:37.546Z,0.00
2022-10-14T05:10:37.551Z,0.00
2022-10-14T05:11:37.526Z,0.00
2022-10-14T05:12:37.487Z,0.00
2022-10-14T05:13:37.514Z,0.00
2022-10-14T05:14:37.496Z,0.00
2022-10-14T05:15:37.462Z,0.00
2022-10-14T05:16:37.476Z,0.00
2022-10-14T05:17:37.499Z,0.00
2022-10-14T05:18:37.442Z,0.00
2022-10-14T05:19:38.478Z,0.00
2022-10-14T05:20:37.435Z,0.00
2022-10-14T05:21:37.462Z,0.00
2022-10-14T05:22:37.426Z,0.00
2022-10-14T05:23:37.402Z,0.00
2022-10-14T05:24:37.393Z,0.00
2022-10-14T05:25:37.367Z,0.00
2022-10-14T05:26:37.366Z,0.00
2022-10-14T05:27:37.366Z,0.00
2022-10-14T05:28:37.341Z,0.00
2022-10-14T05:29:37.295Z,0.00
2022-10-14T05:30:37.350Z,0.00
2022-10-14T05:31:37.302Z,0.00
2022-10-14T05:32:37.286Z,0.00
2022-10-14T05:33:37.250Z,0.00
2022-10-14T05:34:37.246Z,0.00
2022-10-14T05:35:57.522Z,0.00
2022-10-14T05:36:39.255Z,0.00
2022-10-14T05:37:37.223Z,0.00
2022-10-14T05:38:37.236Z,0.00
2022-10-14T05:39:37.211Z,0.00
2022-10-14T05:40:37.376Z,0.00
2022-10-14T05:41:37.184Z,0.00
2022-10-14T05:42:37.152Z,0.00
2022-10-14T05:43:37.191Z,0.00
2022-10-14T05:44:37.143Z,0.00
2022-10-14T05:45:37.141Z,0.00
2022-10-14T05:46:37.143Z,0.00
2022-10-14T05:47:37.084Z,0.00
2022-10-14T05:48:37.118Z,0.00
2022-10-14T05:49:37.091Z,0.00
2022-10-14T05:50:37.099Z,0.00
2022-10-14T05:51:37.111Z,0.00
2022-10-14T05:52:37.063Z,0.00
2022-10-14T05:53:37.092Z,0.00
2022-10-14T05:54:38.049Z,0.00
2022-10-14T05:55:37.033Z,0.00
2022-10-14T05:56:37.028Z,0.00
2022-10-14T05:57:37.004Z,0.00
2022-10-14T05:58:38.052Z,0.00
2022-10-14T05:59:36.988Z,0.00
2022-10-14T06:00:36.969Z,0.00
2022-10-14T06:01:36.971Z,0.00
2022-10-14T06:02:36.971Z,0.00
2022-10-14T06:03:36.950Z,0.00
2022-10-14T06:04:36.936Z,0.00
2022-10-14T06:05:36.926Z,0.00
2022-10-14T06:06:36.939Z,0.00
2022-10-14T06:07:36.913Z,0.00
2022-10-14T06:08:36.906Z,0.00
2022-10-14T06:09:36.836Z,0.00
2022-10-14T06:10:36.877Z,0.00
2022-10-14T06:11:36.885Z,0.00
2022-10-14T06:12:36.893Z,0.00
2022-10-14T06:13:36.828Z,0.00
2022-10-14T06:14:36.840Z,0.00
2022-10-14T06:15:36.764Z,0.00
2022-10-14T06:16:36.803Z,0.00
2022-10-14T06:17:36.813Z,0.00
2022-10-14T06:18:36.774Z,0.00
2022-10-14T06:19:36.772Z,0.00
2022-10-14T06:20:36.725Z,0.00
2022-10-14T06:21:36.779Z,0.00
2022-10-14T06:22:36.789Z,0.00
2022-10-14T06:23:36.873Z,0.00
2022-10-14T06:24:36.697Z,0.00
2022-10-14T06:25:36.726Z,0.00
2022-10-14T06:26:36.682Z,0.00
2022-10-14T06:27:36.730Z,0.00
2022-10-14T06:28:36.693Z,0.00
2022-10-14T06:29:37.131Z,0.00
2022-10-14T06:30:37.487Z,0.00
2022-10-14T06:31:37.629Z,0.00
2022-10-14T06:32:36.618Z,0.00
2022-10-14T06:33:36.581Z,0.00
2022-10-14T06:34:36.606Z,0.00
2022-10-14T06:35:36.630Z,0.00
2022-10-14T06:36:36.559Z,0.00
2022-10-14T06:37:36.586Z,0.00
2022-10-14T06:38:36.601Z,0.00
2022-10-14T06:39:36.538Z,0.00
2022-10-14T06:40:36.526Z,0.00
2022-10-14T06:41:36.542Z,0.00
2022-10-14T06:42:36.524Z,0.00
2022-10-14T06:43:36.502Z,5.62
2022-10-14T06:44:36.482Z,5.62
2022-10-14T06:45:36.486Z,5.62
2022-10-14T06:46:36.446Z,5.62
2022-10-14T06:47:36.467Z,5.62
2022-10-14T06:48:36.514Z,5.62
2022-10-14T06:49:36.410Z,5.62
2022-10-14T06:50:36.403Z,5.62
2022-10-14T06:51:36.440Z,5.62
2022-10-14T06:52:36.367Z,5.62
2022-10-14T06:53:36.422Z,5.62
2022-10-14T06:54:39.273Z,11.25
2022-10-14T06:55:37.390Z,11.25
2022-10-14T06:56:36.332Z,11.25
2022-10-14T06:57:36.339Z,5.62
2022-10-14T06:58:36.327Z,5.62
2022-10-14T06:59:36.390Z,5.62
2022-10-14T07:00:36.307Z,5.62
2022-10-14T07:01:36.358Z,5.62
2022-10-14T07:02:36.354Z,5.62
2022-10-14T07:03:36.243Z,5.62
2022-10-14T07:04:36.303Z,5.62
2022-10-14T07:05:36.270Z,5.62
2022-10-14T07:06:36.247Z,5.62
2022-10-14T07:07:36.253Z,5.62
2022-10-14T07:08:36.314Z,5.62
2022-10-14T07:09:36.228Z,5.62
2022-10-14T07:10:36.236Z,5.62
2022-10-14T07:11:36.232Z,5.62
2022-10-14T07:12:37.923Z,5.62
2022-10-14T07:13:37.151Z,5.62
2022-10-14T07:14:36.179Z,5.62
2022-10-14T07:15:36.491Z,5.62
2022-10-14T07:16:36.176Z,5.62
2022-10-14T07:17:36.127Z,5.62
2022-10-14T07:18:36.120Z,5.62
2022-10-14T07:19:36.110Z,11.25
2022-10-14T07:20:36.088Z,11.25
2022-10-14T07:21:36.073Z,11.25
2022-10-14T07:22:38.666Z,11.25
2022-10-14T07:23:37.628Z,11.25
2022-10-14T07:24:36.200Z,16.88
2022-10-14T07:25:36.023Z,16.88
2022-10-14T07:26:36.070Z,16.88
2022-10-14T07:27:36.005Z,16.88
2022-10-14T07:28:36.072Z,16.88
2022-10-14T07:29:35.980Z,22.50
2022-10-14T07:30:36.021Z,16.88
2022-10-14T07:31:36.027Z,16.88
2022-10-14T07:32:35.992Z,16.88
2022-10-14T07:34:35.941Z,22.50
2022-10-14T07:35:35.917Z,22.50
2022-10-14T07:36:35.977Z,22.50
2022-10-14T07:37:35.900Z,22.50
2022-10-14T07:38:35.916Z,22.50
2022-10-14T07:39:35.904Z,22.50
2022-10-14T07:40:35.904Z,16.88
2022-10-14T07:41:35.825Z,16.88
2022-10-14T07:42:36.082Z,16.88
2022-10-14T07:43:35.832Z,16.88
2022-10-14T07:44:35.819Z,16.88
2022-10-14T07:45:35.814Z,16.88
2022-10-14T07:46:35.813Z,16.88
2022-10-14T07:47:35.826Z,16.88
2022-10-14T07:48:55.911Z,16.88
2022-10-14T07:49:37.777Z,22.50
2022-10-14T07:50:35.753Z,22.50
2022-10-14T07:51:35.757Z,16.88
2022-10-14T07:52:35.741Z,16.88
2022-10-14T07:53:35.758Z,16.88
2022-10-14T07:54:35.742Z,16.88
2022-10-14T07:55:35.714Z,16.88
2022-10-14T07:56:35.684Z,16.88
2022-10-14T07:57:35.710Z,16.88
2022-10-14T07:58:35.682Z,16.88
2022-10-14T07:59:35.681Z,16.88
2022-10-14T08:00:35.723Z,16.88
2022-10-14T08:01:35.657Z,11.25
2022-10-14T08:02:35.630Z,11.25
2022-10-14T08:03:35.658Z,11.25
2022-10-14T08:04:35.658Z,11.25
2022-10-14T08:05:38.665Z,16.88
2022-10-14T08:06:35.574Z,11.25
2022-10-14T08:07:36.427Z,11.25
2022-10-14T08:08:35.574Z,11.25
2022-10-14T08:09:35.565Z,11.25
2022-10-14T08:10:35.776Z,11.25
2022-10-14T08:11:35.495Z,16.88
2022-10-14T08:12:35.536Z,16.88
2022-10-14T08:13:35.534Z,16.88
2022-10-14T08:14:35.536Z,16.88
2022-10-14T08:15:35.487Z,16.88
2022-10-14T08:16:35.495Z,11.25
2022-10-14T08:17:35.474Z,11.25
2022-10-14T08:18:35.475Z,11.25
2022-10-14T08:19:35.459Z,11.25
2022-10-14T08:20:35.498Z,16.88
2022-10-14T08:21:35.458Z,11.25
2022-10-14T08:22:35.459Z,11.25
2022-10-14T08:23:35.437Z,16.88
2022-10-14T08:24:35.431Z,16.88
2022-10-14T08:25:35.600Z,16.88
2022-10-14T08:26:35.404Z,16.88
2022-10-14T08:27:35.356Z,16.88
2022-10-14T08:28:35.434Z,16.88
2022-10-14T08:29:35.489Z,16.88
2022-10-14T08:30:35.344Z,16.88
2022-10-14T08:31:35.322Z,16.88
2022-10-14T08:32:35.339Z,16.88
2022-10-14T08:33:35.340Z,16.88
2022-10-14T08:34:35.291Z,16.88
2022-10-14T08:35:35.280Z,16.88
2022-10-14T08:36:35.249Z,16.88
2022-10-14T08:37:35.247Z,22.50
2022-10-14T08:38:35.202Z,22.50
2022-10-14T08:39:35.253Z,22.50
2022-10-14T08:40:35.324Z,22.50
2022-10-14T08:41:35.191Z,16.88
2022-10-14T08:42:35.272Z,16.88
2022-10-14T08:43:35.185Z,16.88
2022-10-14T08:44:35.154Z,22.50
2022-10-14T08:45:35.166Z,22.50
2022-10-14T08:46:35.116Z,22.50
2022-10-14T08:47:36.036Z,16.88
2022-10-14T08:48:35.132Z,22.50
2022-10-14T08:49:35.089Z,22.50
2022-10-14T08:50:35.048Z,22.50
2022-10-14T08:51:35.117Z,22.50
2022-10-14T08:52:37.537Z,22.50
2022-10-14T08:53:36.121Z,22.50
2022-10-14T08:54:35.000Z,22.50
2022-10-14T08:55:35.049Z,28.12
2022-10-14T08:56:35.047Z,28.12
2022-10-14T08:57:35.023Z,28.12
2022-10-14T08:58:35.010Z,28.12
2022-10-14T08:59:34.988Z,28.12
2022-10-14T09:00:35.009Z,22.50
2022-10-14T09:01:35.313Z,22.50
2022-10-14T09:02:34.954Z,22.50
2022-10-14T09:03:35.094Z,22.50
2022-10-14T09:04:34.925Z,22.50
2022-10-14T09:05:34.950Z,22.50
2022-10-14T09:06:34.926Z,22.50
2022-10-14T09:07:34.885Z,22.50
2022-10-14T09:08:34.912Z,16.88
2022-10-14T09:09:34.866Z,16.88
2022-10-14T09:10:34.898Z,16.88
2022-10-14T09:11:34.870Z,16.88
2022-10-14T09:12:34.874Z,16.88
2022-10-14T09:13:34.878Z,16.88
2022-10-14T09:14:34.865Z,16.88
2022-10-14T09:15:34.862Z,22.50
2022-10-14T09:16:34.773Z,22.50
2022-10-14T09:17:37.058Z,16.88
2022-10-14T09:18:34.759Z,16.88
2022-10-14T09:19:34.742Z,16.88
2022-10-14T09:20:34.798Z,16.88
2022-10-14T09:21:51.726Z,16.88
2022-10-14T09:22:35.736Z,28.12
2022-10-14T09:23:34.688Z,28.12
2022-10-14T09:24:34.742Z,28.12
2022-10-14T09:25:34.706Z,28.12
2022-10-14T09:26:34.682Z,28.12
2022-10-14T09:27:34.702Z,22.50
2022-10-14T09:28:34.730Z,22.50
2022-10-14T09:29:34.668Z,28.12
2022-10-14T09:30:34.639Z,22.50
2022-10-14T09:31:34.687Z,16.88
2022-10-14T09:32:35.511Z,16.88
2022-10-14T09:33:38.239Z,16.88
2022-10-14T09:34:35.584Z,16.88
2022-10-14T09:35:34.659Z,11.25
2022-10-14T09:36:34.554Z,11.25
2022-10-14T09:37:34.575Z,11.25
2022-10-14T09:38:34.593Z,16.88
2022-10-14T09:39:34.551Z,16.88
2022-10-14T09:40:35.546Z,22.50
2022-10-14T09:41:34.488Z,22.50
2022-10-14T09:42:34.499Z,28.12
2022-10-14T09:43:34.551Z,33.75
2022-10-14T09:44:34.527Z,28.12
2022-10-14T09:45:34.493Z,28.12
2022-10-14T09:46:34.499Z,33.75
2022-10-14T09:47:34.452Z,33.75
2022-10-14T09:48:34.449Z,33.75
2022-10-14T09:49:34.466Z,33.75
2022-10-14T09:50:34.391Z,33.75
2022-10-14T09:51:34.429Z,33.75
2022-10-14T09:52:34.392Z,33.75
2022-10-14T09:53:34.432Z,33.75
2022-10-14T09:54:34.381Z,28.12
2022-10-14T09:55:34.343Z,28.12
2022-10-14T09:56:38.955Z,28.12
2022-10-14T09:57:35.512Z,28.12
2022-10-14T09:58:34.393Z,28.12
2022-10-14T09:59:34.277Z,28.12
2022-10-14T10:00:34.371Z,28.12
2022-10-14T10:01:35.695Z,28.12
2022-10-14T10:02:34.268Z,28.12
2022-10-14T10:03:34.332Z,28.12
2022-10-14T10:04:34.254Z,28.12
2022-10-14T10:05:34.233Z,28.12
2022-10-14T10:06:34.205Z,28.12
2022-10-14T10:07:34.508Z,28.12
2022-10-14T10:08:34.224Z,22.50
2022-10-14T10:09:34.188Z,28.12
2022-10-14T10:10:34.162Z,28.12
2022-10-14T10:11:34.198Z,28.12
2022-10-14T10:12:34.179Z,22.50
2022-10-14T10:13:34.132Z,22.50
2022-10-14T10:14:34.185Z,22.50
2022-10-14T10:15:34.936Z,22.50
2022-10-14T10:16:34.161Z,22.50
2022-10-14T10:17:34.149Z,22.50
2022-10-14T10:18:34.095Z,22.50
2022-10-14T10:19:34.167Z,16.88
2022-10-14T10:20:34.044Z,16.88
2022-10-14T10:21:34.062Z,16.88
2022-10-14T10:22:34.060Z,16.88
2022-10-14T10:23:34.032Z,22.50
2022-10-14T10:24:34.029Z,22.50
2022-10-14T10:25:34.037Z,22.50
2022-10-14T10:26:34.051Z,16.88
2022-10-14T10:27:34.017Z,22.50
2022-10-14T10:28:34.073Z,22.50
2022-10-14T10:29:34.001Z,22.50
2022-10-14T10:30:33.969Z,22.50
2022-10-14T10:31:35.065Z,28.12
2022-10-14T10:32:33.951Z,28.12
2022-10-14T10:33:33.911Z,28.12
2022-10-14T10:34:33.894Z,33.75
2022-10-14T10:35:33.922Z,39.38
2022-10-14T10:36:33.914Z,33.75
2022-10-14T10:37:33.913Z,45.00
2022-10-14T10:38:33.866Z,56.25
2022-10-14T10:39:34.559Z,67.50
2022-10-14T10:40:33.876Z,67.50
2022-10-14T10:41:33.845Z,61.88
2022-10-14T10:42:33.838Z,56.25
2022-10-14T10:43:33.828Z,56.25
2022-10-14T10:44:33.818Z,56.25
2022-10-14T10:45:36.484Z,56.25
2022-10-14T10:46:33.802Z,50.62
2022-10-14T10:47:33.807Z,50.62
2022-10-14T10:48:33.820Z,50.62
2022-10-14T10:49:33.767Z,50.62
2022-10-14T10:50:34.339Z,56.25
2022-10-14T10:51:33.743Z,61.88
2022-10-14T10:52:33.739Z,56.25
2022-10-14T10:53:33.686Z,39.38
2022-10-14T10:54:33.725Z,28.12
2022-10-14T10:55:33.671Z,28.12
2022-10-14T10:56:33.691Z,33.75
2022-10-14T10:57:33.663Z,39.38
2022-10-14T10:58:33.699Z,33.75
2022-10-14T10:59:36.406Z,33.75
2022-10-14T11:00:33.618Z,33.75
2022-10-14T11:01:33.684Z,33.75
2022-10-14T11:02:33.650Z,33.75
2022-10-14T11:03:33.631Z,45.00
2022-10-14T11:04:34.414Z,33.75
2022-10-14T11:05:33.628Z,28.12
2022-10-14T11:06:33.579Z,22.50
2022-10-14T11:07:33.596Z,22.50
2022-10-14T11:09:34.521Z,45.00
2022-10-14T11:10:33.556Z,50.62
2022-10-14T11:11:33.506Z,45.00
2022-10-14T11:12:33.532Z,39.38
2022-10-14T11:13:33.475Z,33.75
2022-10-14T11:14:33.488Z,28.12
2022-10-14T11:15:33.518Z,22.50
2022-10-14T11:16:33.456Z,33.75
2022-10-14T11:17:33.546Z,33.75
2022-10-14T11:18:33.468Z,33.75
2022-10-14T11:19:33.468Z,45.00
2022-10-14T11:20:33.424Z,39.38
2022-10-14T11:21:33.396Z,33.75
2022-10-14T11:22:33.576Z,28.12
2022-10-14T11:23:33.447Z,28.12
2022-10-14T11:24:33.379Z,28.12
2022-10-14T11:25:33.356Z,22.50
2022-10-14T11:27:33.382Z,39.38
2022-10-14T11:28:33.415Z,45.00
2022-10-14T11:29:33.308Z,45.00
2022-10-14T11:30:33.273Z,45.00
2022-10-14T11:31:33.316Z,45.00
2022-10-14T11:32:33.300Z,50.62
2022-10-14T11:33:37.435Z,45.00
2022-10-14T11:34:34.278Z,50.62
2022-10-14T11:36:33.206Z,56.25
2022-10-14T11:37:33.220Z,56.25
2022-10-14T11:39:35.547Z,56.25
2022-10-14T11:40:34.185Z,61.88
2022-10-14T11:41:33.177Z,67.50
2022-10-14T11:42:33.140Z,67.50
2022-10-14T11:43:33.220Z,78.75
2022-10-14T11:44:33.181Z,78.75
2022-10-14T11:45:33.196Z,84.38
2022-10-14T11:46:33.196Z,78.75
2022-10-14T11:47:33.176Z,73.12
2022-10-14T11:48:33.111Z,78.75
2022-10-14T11:49:33.137Z,73.12
2022-10-14T11:50:33.120Z,67.50
2022-10-14T11:51:35.575Z,61.88
2022-10-14T11:52:34.070Z,50.62
2022-10-14T11:53:33.078Z,45.00
2022-10-14T11:54:33.060Z,45.00
2022-10-14T11:55:33.041Z,33.75
2022-10-14T11:56:33.032Z,28.12
2022-10-14T11:57:33.014Z,28.12
2022-10-14T11:58:32.981Z,28.12
2022-10-14T11:59:33.025Z,33.75
2022-10-14T12:00:33.031Z,39.38
2022-10-14T12:01:35.777Z,33.75
2022-10-14T12:02:34.082Z,28.12
2022-10-14T12:03:32.937Z,22.50
2022-10-14T12:04:33.006Z,22.50
2022-10-14T12:05:32.962Z,22.50
2022-10-14T12:06:33.510Z,22.50
2022-10-14T12:07:32.905Z,22.50
2022-10-14T12:08:34.770Z,28.12
2022-10-14T12:09:34.010Z,28.12
2022-10-14T12:10:33.108Z,33.75
2022-10-14T12:11:32.871Z,22.50
2022-10-14T12:12:32.861Z,28.12
2022-10-14T12:13:32.846Z,28.12
2022-10-14T12:14:32.837Z,28.12
2022-10-14T12:15:32.870Z,28.12
2022-10-14T12:16:32.816Z,28.12
2022-10-14T12:17:32.818Z,28.12
2022-10-14T12:18:32.990Z,28.12
2022-10-14T12:19:32.831Z,33.75
2022-10-14T12:20:32.815Z,39.38
2022-10-14T12:21:32.754Z,33.75
2022-10-14T12:22:32.856Z,28.12
2022-10-14T12:23:32.747Z,28.12
2022-10-14T12:24:32.710Z,33.75
2022-10-14T12:25:33.719Z,28.12
2022-10-14T12:26:32.716Z,28.12
2022-10-14T12:27:32.788Z,28.12
2022-10-14T12:28:32.729Z,39.38
2022-10-14T12:29:32.696Z,39.38
2022-10-14T12:30:32.718Z,33.75
2022-10-14T12:31:32.653Z,28.12
2022-10-14T12:32:32.669Z,45.00
2022-10-14T12:33:32.755Z,67.50
2022-10-14T12:34:32.660Z,90.00
2022-10-14T12:35:32.618Z,106.88
2022-10-14T12:36:32.729Z,78.75
2022-10-14T12:37:32.970Z,73.12
2022-10-14T12:38:32.584Z,56.25
2022-10-14T12:39:32.538Z,56.25
2022-10-14T12:40:32.649Z,50.62
2022-10-14T12:41:32.552Z,56.25
2022-10-14T12:42:32.528Z,50.62
2022-10-14T12:43:32.507Z,56.25
2022-10-14T12:44:32.488Z,67.50
2022-10-14T12:45:32.600Z,67.50
2022-10-14T12:46:32.483Z,56.25
2022-10-14T12:47:32.988Z,45.00
2022-10-14T12:48:32.466Z,50.62
2022-10-14T12:49:32.656Z,61.88
2022-10-14T12:50:32.423Z,61.88
2022-10-14T12:51:32.484Z,67.50
2022-10-14T12:52:33.016Z,61.88
2022-10-14T12:53:32.466Z,73.12
2022-10-14T12:54:32.468Z,73.12
2022-10-14T12:55:32.392Z,73.12
2022-10-14T12:56:32.396Z,61.88
2022-10-14T12:57:32.419Z,56.25
2022-10-14T12:58:32.357Z,56.25
2022-10-14T12:59:32.371Z,45.00
2022-10-14T13:00:32.396Z,39.38
2022-10-14T13:01:35.383Z,39.38
2022-10-14T13:02:33.287Z,39.38
2022-10-14T13:03:32.409Z,39.38
2022-10-14T13:04:32.259Z,39.38
2022-10-14T13:05:32.568Z,22.50
2022-10-14T13:06:32.265Z,22.50
2022-10-14T13:07:41.050Z,22.50
2022-10-14T13:08:34.302Z,16.88
2022-10-14T13:09:32.293Z,22.50
2022-10-14T13:10:32.213Z,22.50
2022-10-14T13:11:32.230Z,22.50